createdAt,value
2017-08-01T00:01:04.938Z,77.11
2017-08-01T00:03:32.701Z,77.57
2017-08-01T00:06:00.486Z,77.60
2017-08-01T00:08:28.214Z,78.41
2017-08-01T00:10:56.037Z,77.90
2017-08-01T00:13:23.810Z,77.98
2017-08-01T00:15:51.612Z,77.54
2017-08-01T00:18:19.381Z,77.44
2017-08-01T00:20:47.928Z,78.27
2017-08-01T00:23:15.774Z,78.68
2017-08-01T00:25:43.813Z,80.09
2017-08-01T00:28:11.524Z,80.03
2017-08-01T00:30:39.221Z,79.41
2017-08-01T00:33:08.320Z,79.42
2017-08-01T00:35:37.179Z,78.97
2017-08-01T00:38:05.008Z,79.03
2017-08-01T00:40:32.803Z,78.98
2017-08-01T00:43:01.965Z,79.22
2017-08-01T00:45:30.823Z,79.17
2017-08-01T00:48:00.766Z,79.06
2017-08-01T00:50:29.155Z,79.36
2017-08-01T00:52:58.076Z,79.10
2017-08-01T00:55:26.378Z,79.64
2017-08-01T00:57:54.152Z,80.01
2017-08-01T01:00:21.947Z,80.67
2017-08-01T01:02:50.359Z,80.23
2017-08-01T01:05:19.935Z,79.74
2017-08-01T01:07:49.893Z,79.77
2017-08-01T01:10:17.692Z,79.68
2017-08-01T01:12:45.437Z,80.77
2017-08-01T01:15:13.212Z,80.28
2017-08-01T01:17:41.684Z,81.05
2017-08-01T01:20:11.966Z,80.62
2017-08-01T01:22:40.584Z,80.24
2017-08-01T01:25:09.866Z,80.68
2017-08-01T01:27:38.339Z,79.95
2017-08-01T01:30:07.408Z,79.54
2017-08-01T01:32:35.232Z,80.24
2017-08-01T01:35:03.811Z,80.42
2017-08-01T01:37:31.798Z,81.12
2017-08-01T01:39:59.562Z,82.01
2017-08-01T01:42:27.608Z,81.59
2017-08-01T01:44:55.498Z,80.36
2017-08-01T01:47:23.264Z,80.53
2017-08-01T01:49:51.018Z,81.06
2017-08-01T01:52:18.952Z,81.27
2017-08-01T01:54:47.474Z,81.23
2017-08-01T01:57:16.059Z,80.62
2017-08-01T01:59:43.842Z,80.81
2017-08-01T02:02:11.550Z,80.61
2017-08-01T02:04:39.314Z,81.51
2017-08-01T02:07:07.020Z,81.28
2017-08-01T02:09:34.805Z,81.68
2017-08-01T02:12:02.522Z,82.60
2017-08-01T02:14:31.415Z,81.15
2017-08-01T02:16:59.189Z,81.38
2017-08-01T02:19:26.941Z,82.38
2017-08-01T02:21:54.885Z,81.60
2017-08-01T02:24:22.673Z,83.10
2017-08-01T02:26:50.485Z,82.45
2017-08-01T02:29:18.238Z,82.64
2017-08-01T02:31:47.096Z,83.20
2017-08-01T02:34:14.977Z,82.75
2017-08-01T02:36:43.878Z,82.19
2017-08-01T02:39:11.844Z,82.49
2017-08-01T02:41:39.609Z,82.13
2017-08-01T02:44:08.483Z,82.73
2017-08-01T02:46:36.202Z,83.22
2017-08-01T02:49:04.023Z,82.18
2017-08-01T02:51:31.740Z,81.69
2017-08-01T02:53:59.511Z,81.15
2017-08-01T02:56:29.495Z,81.59
2017-08-01T02:58:57.283Z,81.66
2017-08-01T03:01:25.903Z,82.98
2017-08-01T03:03:54.791Z,82.50
2017-08-01T03:06:22.611Z,82.45
2017-08-01T03:08:53.887Z,83.08
2017-08-01T03:11:21.653Z,82.28
2017-08-01T03:13:49.706Z,83.25
2017-08-01T03:16:17.469Z,83.11
2017-08-01T03:18:46.039Z,83.64
2017-08-01T03:21:13.788Z,82.93
2017-08-01T03:23:42.257Z,84.06
2017-08-01T03:26:09.987Z,83.42
2017-08-01T03:28:38.493Z,83.93
2017-08-01T03:31:06.281Z,83.58
2017-08-01T03:33:34.624Z,83.16
2017-08-01T03:36:02.380Z,83.33
2017-08-01T03:38:30.713Z,83.96
2017-08-01T03:40:58.401Z,83.75
2017-08-01T03:43:26.187Z,84.46
2017-08-01T03:45:54.090Z,83.81
2017-08-01T03:48:21.763Z,83.60
2017-08-01T03:50:50.718Z,84.20
2017-08-01T03:53:18.433Z,83.67
2017-08-01T03:55:46.991Z,83.77
2017-08-01T03:58:15.945Z,83.60
2017-08-01T04:00:43.790Z,83.26
2017-08-01T04:03:11.531Z,83.50
2017-08-01T04:05:39.347Z,83.54
2017-08-01T04:08:07.066Z,83.37
2017-08-01T04:10:35.584Z,82.27
2017-08-01T04:13:04.399Z,84.22
2017-08-01T04:15:32.247Z,84.44
2017-08-01T04:18:00.848Z,85.00
2017-08-01T04:20:29.958Z,83.86
2017-08-01T04:22:57.664Z,84.50
2017-08-01T04:25:25.368Z,83.88
2017-08-01T04:27:54.136Z,83.77
2017-08-01T04:30:21.908Z,83.47
2017-08-01T04:32:49.692Z,83.23
2017-08-01T04:35:17.459Z,83.49
2017-08-01T04:37:46.291Z,83.83
2017-08-01T04:40:13.994Z,83.49
2017-08-01T04:42:42.735Z,83.50
2017-08-01T04:45:10.457Z,83.44
2017-08-01T04:47:38.496Z,83.45
2017-08-01T04:50:06.496Z,83.57
2017-08-01T04:52:34.196Z,84.03
2017-08-01T04:55:02.838Z,83.54
2017-08-01T04:57:35.420Z,83.77
2017-08-01T05:00:03.393Z,82.88
2017-08-01T05:02:31.124Z,82.43
2017-08-01T05:05:00.961Z,81.38
2017-08-01T05:07:28.773Z,80.57
2017-08-01T05:09:57.435Z,80.16
2017-08-01T05:12:26.353Z,80.52
2017-08-01T05:14:54.038Z,80.78
2017-08-01T05:17:21.826Z,79.09
2017-08-01T05:19:49.932Z,80.51
2017-08-01T05:22:17.685Z,78.82
2017-08-01T05:24:45.517Z,78.00
2017-08-01T05:27:13.282Z,78.16
2017-08-01T05:29:42.262Z,77.46
2017-08-01T05:32:09.989Z,76.23
2017-08-01T05:34:37.744Z,76.58
2017-08-01T05:37:06.314Z,76.01
2017-08-01T05:39:34.277Z,74.77
2017-08-01T05:42:02.020Z,73.48
2017-08-01T05:44:29.751Z,74.08
2017-08-01T05:46:58.111Z,73.16
2017-08-01T05:49:26.918Z,74.23
2017-08-01T05:51:54.873Z,72.75
2017-08-01T05:54:23.138Z,71.82
2017-08-01T05:56:50.880Z,72.47
2017-08-01T05:59:18.631Z,70.89
2017-08-01T06:01:46.702Z,72.22
2017-08-01T06:04:14.425Z,71.80
2017-08-01T06:06:42.193Z,71.24
2017-08-01T06:09:09.979Z,70.69
2017-08-01T06:11:37.768Z,71.07
2017-08-01T06:14:05.557Z,70.29
2017-08-01T06:16:33.384Z,69.13
2017-08-01T06:19:01.098Z,69.29
2017-08-01T06:21:28.852Z,68.55
2017-08-01T06:23:56.647Z,68.26
2017-08-01T06:26:24.357Z,67.57
2017-08-01T06:28:52.248Z,66.98
2017-08-01T06:31:20.032Z,66.15
2017-08-01T06:33:47.818Z,65.12
2017-08-01T06:36:15.540Z,65.34
2017-08-01T06:38:43.387Z,64.14
2017-08-01T06:41:11.073Z,63.62
2017-08-01T06:43:38.786Z,64.18
2017-08-01T06:46:06.658Z,65.60
2017-08-01T06:48:34.401Z,66.12
2017-08-01T06:51:02.120Z,68.11
2017-08-01T06:53:29.883Z,68.67
2017-08-01T06:55:57.650Z,67.17
2017-08-01T06:58:25.384Z,66.05
2017-08-01T07:00:53.137Z,65.91
2017-08-01T07:03:20.854Z,66.00
2017-08-01T07:05:48.556Z,65.41
2017-08-01T07:08:16.351Z,63.83
2017-08-01T07:10:44.141Z,62.69
2017-08-01T07:13:11.851Z,60.53
2017-08-01T07:15:39.693Z,59.68
2017-08-01T07:18:07.572Z,58.52
2017-08-01T07:20:35.301Z,57.15
2017-08-01T07:23:03.006Z,53.85
2017-08-01T07:25:30.848Z,56.21
2017-08-01T07:27:59.041Z,53.75
2017-08-01T07:30:26.721Z,52.30
2017-08-01T07:32:54.481Z,56.27
2017-08-01T07:35:22.257Z,55.69
2017-08-01T07:37:50.008Z,57.22
2017-08-01T07:40:17.796Z,55.08
2017-08-01T07:42:45.567Z,55.25
2017-08-01T07:45:13.351Z,57.95
2017-08-01T07:47:41.158Z,57.73
2017-08-01T07:50:08.879Z,56.62
2017-08-01T07:52:36.677Z,53.59
2017-08-01T07:55:04.387Z,54.33
2017-08-01T07:57:32.098Z,54.62
2017-08-01T07:59:59.874Z,53.81
2017-08-01T08:02:27.769Z,52.98
2017-08-01T08:04:55.495Z,52.83
2017-08-01T08:07:23.269Z,48.98
2017-08-01T08:09:51.027Z,49.39
2017-08-01T08:12:18.743Z,49.01
2017-08-01T08:14:46.467Z,47.91
2017-08-01T08:17:15.366Z,50.60
2017-08-01T08:19:43.147Z,51.33
2017-08-01T08:22:10.890Z,49.22
2017-08-01T08:24:38.636Z,49.44
2017-08-01T08:27:06.385Z,51.37
2017-08-01T08:29:34.204Z,49.00
2017-08-01T08:32:01.939Z,48.06
2017-08-01T08:34:29.667Z,47.42
2017-08-01T08:36:57.427Z,48.79
2017-08-01T08:39:25.165Z,47.55
2017-08-01T08:41:52.975Z,44.19
2017-08-01T08:44:20.725Z,44.57
2017-08-01T08:46:48.444Z,45.76
2017-08-01T08:49:16.188Z,48.45
2017-08-01T08:51:43.912Z,44.83
2017-08-01T08:54:11.672Z,45.96
2017-08-01T08:56:39.513Z,43.40
2017-08-01T08:59:07.229Z,46.54
2017-08-01T09:01:34.912Z,47.20
2017-08-01T09:04:02.684Z,44.54
2017-08-01T09:06:30.432Z,45.19
2017-08-01T09:08:58.299Z,45.58
2017-08-01T09:11:26.011Z,44.55
2017-08-01T09:13:53.698Z,46.47
2017-08-01T09:16:21.455Z,45.72
2017-08-01T09:18:49.141Z,43.93
2017-08-01T09:21:16.862Z,42.71
2017-08-01T09:23:44.637Z,43.75
2017-08-01T09:26:12.353Z,41.40
2017-08-01T09:28:40.543Z,41.82
2017-08-01T09:31:08.268Z,40.13
2017-08-01T09:33:35.984Z,40.80
2017-08-01T09:36:03.747Z,41.12
2017-08-01T09:38:31.467Z,40.65
2017-08-01T09:40:59.273Z,41.81
2017-08-01T09:43:27.057Z,41.02
2017-08-01T09:45:54.749Z,39.77
2017-08-01T09:48:22.520Z,40.01
2017-08-01T09:50:50.313Z,39.44
2017-08-01T09:53:18.229Z,39.75
2017-08-01T09:55:45.934Z,39.85
2017-08-01T09:58:13.649Z,40.55
2017-08-01T10:00:41.435Z,39.87
2017-08-01T10:03:09.225Z,38.43
2017-08-01T10:05:36.964Z,37.26
2017-08-01T10:08:04.829Z,40.60
2017-08-01T10:10:32.530Z,38.72
2017-08-01T10:13:00.907Z,37.76
2017-08-01T10:15:28.673Z,39.16
2017-08-01T10:17:56.483Z,39.64
2017-08-01T10:20:24.295Z,37.43
2017-08-01T10:22:52.005Z,36.30
2017-08-01T10:25:19.764Z,35.91
2017-08-01T10:27:47.602Z,34.99
2017-08-01T10:30:15.414Z,35.54
2017-08-01T10:32:43.223Z,36.49
2017-08-01T10:35:11.020Z,36.80
2017-08-01T10:37:38.919Z,35.52
2017-08-01T10:40:06.719Z,36.46
2017-08-01T10:42:34.496Z,35.64
2017-08-01T10:45:02.276Z,34.00
2017-08-01T10:47:30.123Z,34.75
2017-08-01T10:49:57.814Z,36.52
2017-08-01T10:52:25.665Z,34.18
2017-08-01T10:54:53.365Z,33.32
2017-08-01T10:57:21.153Z,35.15
2017-08-01T10:59:48.899Z,35.49
2017-08-01T11:02:16.652Z,33.82
2017-08-01T11:04:44.410Z,34.74
2017-08-01T11:07:12.113Z,34.08
2017-08-01T11:09:39.815Z,34.85
2017-08-01T11:12:07.599Z,34.25
2017-08-01T11:14:35.308Z,36.04
2017-08-01T11:17:03.588Z,34.39
2017-08-01T11:19:31.340Z,34.68
2017-08-01T11:21:59.135Z,35.42
2017-08-01T11:24:26.848Z,34.57
2017-08-01T11:26:54.620Z,35.42
2017-08-01T11:29:22.389Z,34.13
2017-08-01T11:31:50.505Z,35.62
2017-08-01T11:34:18.296Z,34.55
2017-08-01T11:36:46.233Z,33.24
2017-08-01T11:39:13.957Z,33.49
2017-08-01T11:41:41.720Z,35.47
2017-08-01T11:44:09.509Z,34.58
2017-08-01T11:46:37.238Z,34.91
2017-08-01T11:49:05.042Z,36.39
2017-08-01T11:51:33.869Z,34.26
2017-08-01T11:54:01.647Z,35.83
2017-08-01T11:56:29.391Z,34.37
2017-08-01T11:58:57.162Z,33.15
2017-08-01T12:01:24.900Z,35.69
2017-08-01T12:03:52.707Z,32.23
2017-08-01T12:06:20.516Z,32.61
2017-08-01T12:08:48.373Z,34.79
2017-08-01T12:11:16.216Z,32.62
2017-08-01T12:13:43.951Z,33.67
2017-08-01T12:16:11.724Z,31.81
2017-08-01T12:18:39.531Z,33.65
2017-08-01T12:21:07.255Z,35.80
2017-08-01T12:23:34.954Z,34.11
2017-08-01T12:26:02.728Z,34.95
2017-08-01T12:28:30.434Z,34.63
2017-08-01T12:30:58.386Z,32.55
2017-08-01T12:33:26.157Z,31.36
2017-08-01T12:35:53.912Z,31.21
2017-08-01T12:38:21.691Z,30.52
2017-08-01T12:40:49.482Z,31.14
2017-08-01T12:43:17.217Z,30.30
2017-08-01T12:45:45.701Z,31.72
2017-08-01T12:48:13.541Z,30.57
2017-08-01T12:50:41.299Z,31.12
2017-08-01T12:53:09.229Z,29.55
2017-08-01T12:55:36.986Z,29.82
2017-08-01T12:58:04.687Z,31.16
2017-08-01T13:00:32.463Z,30.89
2017-08-01T13:03:00.161Z,28.79
2017-08-01T13:05:27.990Z,28.69
2017-08-01T13:07:55.782Z,29.36
2017-08-01T13:10:23.557Z,27.98
2017-08-01T13:12:51.263Z,29.57
2017-08-01T13:15:19.029Z,28.65
2017-08-01T13:17:46.816Z,29.67
2017-08-01T13:20:15.617Z,31.24
2017-08-01T13:22:43.426Z,32.61
2017-08-01T13:25:11.204Z,32.53
2017-08-01T13:27:39.032Z,33.27
2017-08-01T13:30:06.834Z,31.73
2017-08-01T13:32:34.536Z,35.32
2017-08-01T13:35:02.339Z,36.52
2017-08-01T13:37:30.201Z,35.79
2017-08-01T13:39:57.895Z,34.88
2017-08-01T13:42:25.660Z,37.41
2017-08-01T13:44:53.392Z,37.06
2017-08-01T13:47:21.184Z,35.05
2017-08-01T13:49:49.268Z,35.30
2017-08-01T13:52:16.977Z,38.30
2017-08-01T13:54:44.691Z,38.48
2017-08-01T13:57:12.475Z,36.55
2017-08-01T13:59:40.258Z,37.07
2017-08-01T14:02:07.977Z,36.86
2017-08-01T14:04:35.933Z,37.67
2017-08-01T14:07:03.753Z,39.15
2017-08-01T14:09:31.498Z,36.69
2017-08-01T14:11:59.407Z,37.13
2017-08-01T14:14:27.098Z,37.52
2017-08-01T14:16:54.824Z,38.42
2017-08-01T14:19:22.595Z,38.21
2017-08-01T14:21:50.297Z,37.84
2017-08-01T14:24:18.089Z,38.06
2017-08-01T14:26:45.828Z,34.35
2017-08-01T14:29:13.593Z,37.50
2017-08-01T14:31:41.330Z,36.05
2017-08-01T14:34:09.120Z,35.77
2017-08-01T14:36:36.947Z,35.95
2017-08-01T14:39:04.993Z,36.82
2017-08-01T14:41:32.668Z,36.94
2017-08-01T14:44:00.395Z,37.17
2017-08-01T14:46:28.188Z,40.59
2017-08-01T14:48:56.011Z,36.35
2017-08-01T14:51:23.770Z,31.90
2017-08-01T14:53:51.575Z,34.14
2017-08-01T14:56:19.364Z,33.89
2017-08-01T14:58:47.242Z,34.23
2017-08-01T15:01:14.939Z,35.31
2017-08-01T15:03:42.735Z,36.22
2017-08-01T15:06:10.465Z,36.65
2017-08-01T15:08:38.175Z,36.33
2017-08-01T15:11:05.969Z,37.77
2017-08-01T15:13:33.687Z,40.72
2017-08-01T15:16:02.043Z,36.05
2017-08-01T15:18:29.862Z,37.30
2017-08-01T15:20:57.586Z,38.40
2017-08-01T15:23:25.274Z,38.55
2017-08-01T15:25:54.526Z,38.22
2017-08-01T15:28:22.327Z,38.22
2017-08-01T15:30:51.275Z,36.25
2017-08-01T15:33:19.048Z,37.36
2017-08-01T15:35:46.888Z,38.40
2017-08-01T15:38:14.759Z,38.30
2017-08-01T15:40:42.556Z,39.22
2017-08-01T15:43:10.292Z,37.74
2017-08-01T15:45:38.203Z,38.26
2017-08-01T15:48:05.974Z,40.87
2017-08-01T15:50:33.923Z,39.05
2017-08-01T15:53:01.701Z,39.24
2017-08-01T15:55:29.502Z,36.76
2017-08-01T15:57:57.386Z,34.24
2017-08-01T16:00:25.188Z,37.87
2017-08-01T16:02:52.998Z,39.46
2017-08-01T16:05:20.905Z,37.78
2017-08-01T16:07:48.758Z,37.96
2017-08-01T16:10:16.579Z,39.97
2017-08-01T16:12:45.277Z,41.49
2017-08-01T16:15:14.380Z,40.73
2017-08-01T16:17:43.254Z,40.17
2017-08-01T16:20:11.454Z,41.26
2017-08-01T16:22:39.251Z,42.11
2017-08-01T16:25:07.183Z,43.12
2017-08-01T16:27:35.036Z,45.19
2017-08-01T16:30:02.868Z,46.33
2017-08-01T16:32:30.672Z,46.78
2017-08-01T16:34:58.511Z,46.16
2017-08-01T16:37:27.162Z,47.33
2017-08-01T16:39:55.093Z,46.66
2017-08-01T16:42:23.033Z,46.84
2017-08-01T16:44:50.906Z,47.63
2017-08-01T16:47:18.791Z,48.31
2017-08-01T16:49:46.666Z,50.33
2017-08-01T16:52:14.460Z,50.86
2017-08-01T16:54:43.208Z,50.84
2017-08-01T16:57:11.045Z,52.02
2017-08-01T16:59:38.838Z,52.99
2017-08-01T17:02:06.590Z,53.02
2017-08-01T17:04:34.461Z,53.98
2017-08-01T17:07:02.257Z,53.52
2017-08-01T17:09:30.086Z,54.04
2017-08-01T17:11:57.914Z,54.25
2017-08-01T17:14:25.782Z,54.55
2017-08-01T17:16:53.569Z,55.15
2017-08-01T17:19:21.422Z,55.37
2017-08-01T17:21:49.986Z,56.21
2017-08-01T17:24:17.711Z,55.33
2017-08-01T17:26:45.537Z,54.37
2017-08-01T17:29:13.285Z,54.57
2017-08-01T17:31:41.084Z,55.32
2017-08-01T17:34:08.903Z,54.90
2017-08-01T17:36:36.689Z,55.25
2017-08-01T17:39:04.652Z,55.92
2017-08-01T17:41:32.545Z,57.29
2017-08-01T17:44:00.367Z,55.74
2017-08-01T17:46:28.135Z,55.31
2017-08-01T17:48:55.960Z,56.11
2017-08-01T17:51:23.710Z,56.49
2017-08-01T17:53:51.530Z,56.38
2017-08-01T17:56:19.235Z,56.91
2017-08-01T17:58:47.018Z,56.19
2017-08-01T18:01:15.983Z,55.55
2017-08-01T18:03:43.695Z,54.91
2017-08-01T18:06:11.557Z,55.19
2017-08-01T18:08:39.315Z,55.57
2017-08-01T18:11:07.137Z,56.35
2017-08-01T18:13:35.771Z,56.55
2017-08-01T18:16:03.517Z,57.18
2017-08-01T18:18:31.373Z,57.44
2017-08-01T18:20:59.130Z,56.72
2017-08-01T18:23:26.905Z,57.91
2017-08-01T18:25:54.704Z,57.94
2017-08-01T18:28:22.590Z,58.98
2017-08-01T18:30:52.682Z,58.89
2017-08-01T18:33:20.609Z,58.89
2017-08-01T18:35:48.423Z,59.10
2017-08-01T18:38:16.240Z,58.90
2017-08-01T18:40:44.565Z,60.81
2017-08-01T18:43:12.389Z,60.60
2017-08-01T18:45:40.275Z,60.82
2017-08-01T18:48:09.132Z,60.14
2017-08-01T18:50:37.039Z,60.10
2017-08-01T18:53:04.861Z,59.73
2017-08-01T18:55:35.245Z,60.56
2017-08-01T18:58:03.199Z,60.11
2017-08-01T19:00:31.362Z,60.20
2017-08-01T19:02:59.194Z,60.04
2017-08-01T19:05:27.991Z,60.80
2017-08-01T19:07:58.835Z,60.42
2017-08-01T19:10:27.872Z,60.20
2017-08-01T19:12:57.165Z,59.74
2017-08-01T19:15:25.615Z,59.70
2017-08-01T19:17:53.501Z,60.04
2017-08-01T19:20:21.690Z,60.32
2017-08-01T19:22:49.945Z,60.41
2017-08-01T19:25:18.240Z,59.05
2017-08-01T19:27:47.015Z,60.37
2017-08-01T19:30:14.875Z,59.21
2017-08-01T19:32:42.838Z,58.78
2017-08-01T19:35:11.052Z,58.82
2017-08-01T19:37:39.107Z,59.07
2017-08-01T19:40:07.026Z,59.75
2017-08-01T19:42:34.786Z,61.00
2017-08-01T19:45:02.532Z,61.89
2017-08-01T19:47:30.420Z,62.12
2017-08-01T19:49:58.248Z,63.56
2017-08-01T19:52:25.976Z,64.56
2017-08-01T19:54:53.759Z,63.34
2017-08-01T19:57:21.585Z,62.49
2017-08-01T19:59:49.321Z,61.75
2017-08-01T20:02:17.080Z,60.35
2017-08-01T20:04:44.897Z,61.71
2017-08-01T20:07:12.632Z,62.62
2017-08-01T20:09:40.479Z,62.51
2017-08-01T20:12:08.261Z,62.92
2017-08-01T20:14:36.068Z,62.32
2017-08-01T20:17:04.126Z,62.10
2017-08-01T20:19:32.070Z,62.71
2017-08-01T20:21:59.883Z,62.85
2017-08-01T20:24:27.652Z,62.71
2017-08-01T20:26:55.455Z,63.02
2017-08-01T20:29:23.265Z,63.15
2017-08-01T20:31:50.982Z,62.80
2017-08-01T20:34:18.776Z,64.27
2017-08-01T20:36:46.632Z,65.53
2017-08-01T20:39:14.433Z,67.21
2017-08-01T20:41:42.290Z,67.27
2017-08-01T20:44:10.110Z,65.98
2017-08-01T20:46:38.359Z,65.17
2017-08-01T20:49:06.136Z,64.93
2017-08-01T20:51:33.893Z,64.67
2017-08-01T20:54:01.749Z,64.33
2017-08-01T20:56:29.676Z,64.71
2017-08-01T20:58:57.473Z,65.52
2017-08-01T21:01:25.194Z,66.51
2017-08-01T21:03:52.933Z,66.51
2017-08-01T21:06:20.774Z,66.70
2017-08-01T21:08:48.623Z,67.18
2017-08-01T21:11:17.167Z,66.97
2017-08-01T21:13:45.066Z,67.08
2017-08-01T21:16:12.826Z,67.41
2017-08-01T21:18:40.630Z,67.56
2017-08-01T21:21:08.322Z,68.15
2017-08-01T21:23:37.359Z,67.38
2017-08-01T21:26:05.123Z,68.16
2017-08-01T21:28:32.901Z,68.85
2017-08-01T21:31:00.790Z,69.64
2017-08-01T21:33:28.648Z,69.53
2017-08-01T21:35:56.407Z,70.46
2017-08-01T21:38:24.308Z,70.34
2017-08-01T21:40:52.089Z,70.14
2017-08-01T21:43:19.790Z,70.17
2017-08-01T21:45:47.586Z,70.47
2017-08-01T21:48:15.394Z,70.76
2017-08-01T21:50:43.275Z,71.16
2017-08-01T21:53:11.045Z,70.74
2017-08-01T21:55:38.902Z,70.99
2017-08-01T21:58:06.736Z,71.29
2017-08-01T22:00:34.513Z,71.47
2017-08-01T22:03:02.229Z,71.39
2017-08-01T22:05:30.022Z,72.62
2017-08-01T22:07:57.774Z,73.59
2017-08-01T22:10:25.606Z,73.47
2017-08-01T22:12:53.499Z,73.12
2017-08-01T22:15:21.319Z,71.84
2017-08-01T22:17:49.070Z,68.47
2017-08-01T22:20:16.807Z,68.63
2017-08-01T22:22:45.524Z,70.60
2017-08-01T22:25:13.294Z,70.30
2017-08-01T22:27:41.055Z,69.45
2017-08-01T22:30:08.877Z,69.15
2017-08-01T22:32:36.713Z,67.79
2017-08-01T22:35:05.481Z,68.97
2017-08-01T22:37:33.248Z,70.02
2017-08-01T22:40:00.974Z,70.83
2017-08-01T22:42:28.872Z,70.76
2017-08-01T22:44:56.588Z,70.39
2017-08-01T22:47:24.363Z,71.04
2017-08-01T22:49:52.776Z,71.02
2017-08-01T22:52:20.480Z,71.38
2017-08-01T22:54:48.265Z,72.60
2017-08-01T22:57:16.016Z,72.53
2017-08-01T22:59:43.844Z,71.85
2017-08-01T23:02:11.604Z,71.76
2017-08-01T23:04:39.341Z,72.23
2017-08-01T23:07:07.090Z,71.94
2017-08-01T23:09:35.052Z,72.51
2017-08-01T23:12:02.861Z,73.46
2017-08-01T23:14:30.545Z,72.74
2017-08-01T23:16:58.336Z,72.73
2017-08-01T23:19:26.109Z,72.41
2017-08-01T23:21:53.953Z,72.06
2017-08-01T23:24:21.696Z,71.93
2017-08-01T23:26:49.472Z,71.91
2017-08-01T23:29:17.236Z,72.88
2017-08-01T23:31:45.051Z,73.19
2017-08-01T23:34:12.823Z,73.18
2017-08-01T23:36:40.516Z,73.48
2017-08-01T23:39:08.339Z,73.95
2017-08-01T23:41:36.045Z,74.94
2017-08-01T23:44:03.804Z,74.17
2017-08-01T23:46:31.513Z,74.10
2017-08-01T23:48:59.263Z,74.50
2017-08-01T23:51:27.168Z,73.98
2017-08-01T23:53:54.914Z,73.48
2017-08-01T23:56:22.692Z,72.96
2017-08-01T23:58:50.529Z,72.94
